sensor_id;sensor_type;location;lat;lon;timestamp;P1;durP1;ratioP1;P2;durP2;ratioP2
34892;SDS011;21106;52.240;20.902;2023-07-31T00:02:40;4.70;;;1.40;;
34892;SDS011;21106;52.240;20.902;2023-07-31T00:09:55;3.90;;;1.50;;
34892;SDS011;21106;52.240;20.902;2023-07-31T00:16:50;1.20;;;1.00;;
34892;SDS011;21106;52.240;20.902;2023-07-31T00:21:59;1.20;;;0.90;;
34892;SDS011;21106;52.240;20.902;2023-07-31T00:27:08;2.70;;;1.50;;
34892;SDS011;21106;52.240;20.902;2023-07-31T00:32:37;2.70;;;1.50;;
34892;SDS011;21106;52.240;20.902;2023-07-31T00:37:44;1.80;;;1.00;;
34892;SDS011;21106;52.240;20.902;2023-07-31T00:42:52;2.00;;;1.30;;
34892;SDS011;21106;52.240;20.902;2023-07-31T00:48:02;3.20;;;1.10;;
34892;SDS011;21106;52.240;20.902;2023-07-31T00:53:13;1.70;;;1.40;;
34892;SDS011;21106;52.240;20.902;2023-07-31T00:58:19;4.40;;;1.40;;
34892;SDS011;21106;52.240;20.902;2023-07-31T01:03:27;1.90;;;1.20;;
34892;SDS011;21106;52.240;20.902;2023-07-31T01:08:52;5.60;;;1.40;;
34892;SDS011;21106;52.240;20.902;2023-07-31T01:14:06;2.90;;;1.20;;
34892;SDS011;21106;52.240;20.902;2023-07-31T01:19:53;3.90;;;1.50;;
34892;SDS011;21106;52.240;20.902;2023-07-31T01:25:57;4.10;;;1.50;;
34892;SDS011;21106;52.240;20.902;2023-07-31T01:31:44;1.70;;;1.30;;
34892;SDS011;21106;52.240;20.902;2023-07-31T01:36:57;4.00;;;1.40;;
34892;SDS011;21106;52.240;20.902;2023-07-31T01:42:07;4.00;;;1.40;;
34892;SDS011;21106;52.240;20.902;2023-07-31T01:47:20;2.20;;;1.30;;
34892;SDS011;21106;52.240;20.902;2023-07-31T01:52:31;3.60;;;1.50;;
34892;SDS011;21106;52.240;20.902;2023-07-31T01:57:53;3.70;;;2.00;;
34892;SDS011;21106;52.240;20.902;2023-07-31T02:03:35;2.50;;;1.50;;
34892;SDS011;21106;52.240;20.902;2023-07-31T02:10:04;2.50;;;1.60;;
34892;SDS011;21106;52.240;20.902;2023-07-31T02:16:14;2.70;;;1.60;;
34892;SDS011;21106;52.240;20.902;2023-07-31T02:22:44;2.60;;;1.70;;
34892;SDS011;21106;52.240;20.902;2023-07-31T02:29:30;3.40;;;2.10;;
34892;SDS011;21106;52.240;20.902;2023-07-31T02:35:56;2.50;;;1.80;;
34892;SDS011;21106;52.240;20.902;2023-07-31T02:41:27;10.20;;;1.90;;
34892;SDS011;21106;52.240;20.902;2023-07-31T02:48:15;4.30;;;2.00;;
34892;SDS011;21106;52.240;20.902;2023-07-31T02:55:01;7.50;;;1.80;;
34892;SDS011;21106;52.240;20.902;2023-07-31T03:01:28;2.70;;;2.00;;
34892;SDS011;21106;52.240;20.902;2023-07-31T03:08:14;5.20;;;2.70;;
34892;SDS011;21106;52.240;20.902;2023-07-31T03:14:40;2.30;;;1.90;;
34892;SDS011;21106;52.240;20.902;2023-07-31T03:21:27;4.10;;;2.30;;
34892;SDS011;21106;52.240;20.902;2023-07-31T03:28:13;4.40;;;2.00;;
34892;SDS011;21106;52.240;20.902;2023-07-31T03:34:59;3.40;;;2.30;;
34892;SDS011;21106;52.240;20.902;2023-07-31T03:41:28;7.60;;;2.20;;
34892;SDS011;21106;52.240;20.902;2023-07-31T03:47:55;3.40;;;2.20;;
34892;SDS011;21106;52.240;20.902;2023-07-31T03:54:05;3.30;;;2.00;;
34892;SDS011;21106;52.240;20.902;2023-07-31T04:00:12;5.70;;;2.10;;
34892;SDS011;21106;52.240;20.902;2023-07-31T04:05:22;3.90;;;2.50;;
34892;SDS011;21106;52.240;20.902;2023-07-31T04:11:53;5.50;;;2.10;;
34892;SDS011;21106;52.240;20.902;2023-07-31T04:17:10;3.80;;;2.30;;
34892;SDS011;21106;52.240;20.902;2023-07-31T04:23:01;5.20;;;2.30;;
34892;SDS011;21106;52.240;20.902;2023-07-31T04:28:07;3.60;;;2.10;;
34892;SDS011;21106;52.240;20.902;2023-07-31T04:33:13;4.30;;;2.00;;
34892;SDS011;21106;52.240;20.902;2023-07-31T04:38:22;5.50;;;2.40;;
34892;SDS011;21106;52.240;20.902;2023-07-31T04:43:33;6.30;;;2.60;;
34892;SDS011;21106;52.240;20.902;2023-07-31T04:48:39;5.70;;;2.20;;
34892;SDS011;21106;52.240;20.902;2023-07-31T04:53:53;5.10;;;2.20;;
34892;SDS011;21106;52.240;20.902;2023-07-31T04:58:59;5.10;;;2.60;;
34892;SDS011;21106;52.240;20.902;2023-07-31T05:04:05;7.50;;;2.30;;
34892;SDS011;21106;52.240;20.902;2023-07-31T05:09:11;6.80;;;2.30;;
34892;SDS011;21106;52.240;20.902;2023-07-31T05:14:18;10.80;;;3.00;;
34892;SDS011;21106;52.240;20.902;2023-07-31T05:19:24;6.00;;;2.10;;
34892;SDS011;21106;52.240;20.902;2023-07-31T05:24:30;4.20;;;2.30;;
34892;SDS011;21106;52.240;20.902;2023-07-31T05:29:46;5.50;;;2.00;;
34892;SDS011;21106;52.240;20.902;2023-07-31T05:34:52;5.90;;;1.70;;
34892;SDS011;21106;52.240;20.902;2023-07-31T05:40:55;15.90;;;2.20;;
34892;SDS011;21106;52.240;20.902;2023-07-31T05:47:14;6.80;;;1.80;;
34892;SDS011;21106;52.240;20.902;2023-07-31T05:52:21;4.20;;;1.70;;
34892;SDS011;21106;52.240;20.902;2023-07-31T05:57:27;3.40;;;1.90;;
34892;SDS011;21106;52.240;20.902;2023-07-31T06:02:34;4.00;;;1.60;;
34892;SDS011;21106;52.240;20.902;2023-07-31T06:07:42;3.50;;;1.70;;
34892;SDS011;21106;52.240;20.902;2023-07-31T06:12:48;4.60;;;1.80;;
34892;SDS011;21106;52.240;20.902;2023-07-31T06:17:54;2.90;;;1.60;;
34892;SDS011;21106;52.240;20.902;2023-07-31T06:23:02;3.80;;;1.70;;
34892;SDS011;21106;52.240;20.902;2023-07-31T06:28:09;8.50;;;1.70;;
34892;SDS011;21106;52.240;20.902;2023-07-31T06:33:15;3.20;;;1.80;;
34892;SDS011;21106;52.240;20.902;2023-07-31T06:38:23;5.20;;;2.00;;
34892;SDS011;21106;52.240;20.902;2023-07-31T06:43:31;10.30;;;2.50;;
34892;SDS011;21106;52.240;20.902;2023-07-31T06:48:37;10.30;;;3.20;;
34892;SDS011;21106;52.240;20.902;2023-07-31T06:53:43;7.60;;;2.80;;
34892;SDS011;21106;52.240;20.902;2023-07-31T06:58:50;9.70;;;2.20;;
34892;SDS011;21106;52.240;20.902;2023-07-31T07:03:57;5.10;;;2.00;;
34892;SDS011;21106;52.240;20.902;2023-07-31T07:09:21;4.30;;;2.00;;
34892;SDS011;21106;52.240;20.902;2023-07-31T07:14:30;4.30;;;2.20;;
34892;SDS011;21106;52.240;20.902;2023-07-31T07:19:40;5.40;;;1.80;;
34892;SDS011;21106;52.240;20.902;2023-07-31T07:24:53;7.60;;;2.50;;
34892;SDS011;21106;52.240;20.902;2023-07-31T07:29:59;7.90;;;2.20;;
34892;SDS011;21106;52.240;20.902;2023-07-31T07:35:06;4.10;;;1.80;;
34892;SDS011;21106;52.240;20.902;2023-07-31T07:40:13;8.20;;;2.00;;
34892;SDS011;21106;52.240;20.902;2023-07-31T07:45:19;4.20;;;2.00;;
34892;SDS011;21106;52.240;20.902;2023-07-31T07:50:25;7.80;;;2.00;;
34892;SDS011;21106;52.240;20.902;2023-07-31T07:55:32;5.10;;;1.60;;
34892;SDS011;21106;52.240;20.902;2023-07-31T08:00:38;7.30;;;2.00;;
34892;SDS011;21106;52.240;20.902;2023-07-31T08:05:49;4.70;;;2.40;;
34892;SDS011;21106;52.240;20.902;2023-07-31T08:16:03;3.00;;;1.80;;
34892;SDS011;21106;52.240;20.902;2023-07-31T08:21:10;6.60;;;2.10;;
34892;SDS011;21106;52.240;20.902;2023-07-31T08:26:17;4.50;;;1.70;;
34892;SDS011;21106;52.240;20.902;2023-07-31T08:31:24;6.50;;;2.00;;
34892;SDS011;21106;52.240;20.902;2023-07-31T08:36:30;6.30;;;1.80;;
34892;SDS011;21106;52.240;20.902;2023-07-31T08:41:39;3.70;;;1.70;;
34892;SDS011;21106;52.240;20.902;2023-07-31T08:46:45;4.50;;;1.90;;
34892;SDS011;21106;52.240;20.902;2023-07-31T08:51:53;6.90;;;1.60;;
34892;SDS011;21106;52.240;20.902;2023-07-31T08:57:00;61.10;;;24.30;;
34892;SDS011;21106;52.240;20.902;2023-07-31T09:02:07;78.40;;;33.60;;
34892;SDS011;21106;52.240;20.902;2023-07-31T09:07:14;54.00;;;21.20;;
34892;SDS011;21106;52.240;20.902;2023-07-31T09:12:22;59.50;;;25.50;;
34892;SDS011;21106;52.240;20.902;2023-07-31T09:17:33;21.90;;;10.30;;
34892;SDS011;21106;52.240;20.902;2023-07-31T09:22:40;17.70;;;7.00;;
34892;SDS011;21106;52.240;20.902;2023-07-31T09:27:48;16.10;;;5.50;;
34892;SDS011;21106;52.240;20.902;2023-07-31T09:33:13;6.30;;;3.40;;
34892;SDS011;21106;52.240;20.902;2023-07-31T09:38:31;13.60;;;4.70;;
34892;SDS011;21106;52.240;20.902;2023-07-31T09:43:38;9.80;;;3.40;;
34892;SDS011;21106;52.240;20.902;2023-07-31T09:48:45;12.80;;;4.70;;
34892;SDS011;21106;52.240;20.902;2023-07-31T09:53:59;7.50;;;2.50;;
34892;SDS011;21106;52.240;20.902;2023-07-31T09:59:06;4.60;;;1.50;;
34892;SDS011;21106;52.240;20.902;2023-07-31T10:04:17;6.50;;;1.60;;
34892;SDS011;21106;52.240;20.902;2023-07-31T10:09:28;5.30;;;1.50;;
34892;SDS011;21106;52.240;20.902;2023-07-31T10:14:37;6.90;;;1.80;;
34892;SDS011;21106;52.240;20.902;2023-07-31T10:19:44;5.70;;;1.20;;
34892;SDS011;21106;52.240;20.902;2023-07-31T10:24:57;3.00;;;1.10;;
34892;SDS011;21106;52.240;20.902;2023-07-31T10:30:05;4.80;;;1.00;;
34892;SDS011;21106;52.240;20.902;2023-07-31T10:35:13;2.90;;;1.20;;
34892;SDS011;21106;52.240;20.902;2023-07-31T10:40:26;5.80;;;1.20;;
34892;SDS011;21106;52.240;20.902;2023-07-31T10:50:51;6.10;;;1.10;;
34892;SDS011;21106;52.240;20.902;2023-07-31T10:56:03;3.80;;;1.50;;
34892;SDS011;21106;52.240;20.902;2023-07-31T11:01:12;3.00;;;1.10;;
34892;SDS011;21106;52.240;20.902;2023-07-31T11:06:19;4.10;;;1.20;;
34892;SDS011;21106;52.240;20.902;2023-07-31T11:11:28;5.40;;;0.90;;
34892;SDS011;21106;52.240;20.902;2023-07-31T11:16:49;6.50;;;1.10;;
34892;SDS011;21106;52.240;20.902;2023-07-31T11:21:58;2.60;;;0.90;;
34892;SDS011;21106;52.240;20.902;2023-07-31T11:27:07;3.90;;;1.00;;
34892;SDS011;21106;52.240;20.902;2023-07-31T11:32:16;1.90;;;0.80;;
34892;SDS011;21106;52.240;20.902;2023-07-31T11:37:23;3.30;;;1.00;;
34892;SDS011;21106;52.240;20.902;2023-07-31T11:42:29;3.50;;;0.90;;
34892;SDS011;21106;52.240;20.902;2023-07-31T11:47:36;3.60;;;1.10;;
34892;SDS011;21106;52.240;20.902;2023-07-31T11:52:43;3.00;;;0.90;;
34892;SDS011;21106;52.240;20.902;2023-07-31T11:57:51;6.70;;;1.20;;
34892;SDS011;21106;52.240;20.902;2023-07-31T12:02:59;3.60;;;0.90;;
34892;SDS011;21106;52.240;20.902;2023-07-31T12:08:12;4.20;;;1.50;;
34892;SDS011;21106;52.240;20.902;2023-07-31T12:13:23;3.90;;;0.90;;
34892;SDS011;21106;52.240;20.902;2023-07-31T12:18:35;5.60;;;1.50;;
34892;SDS011;21106;52.240;20.902;2023-07-31T12:23:43;1.20;;;0.90;;
34892;SDS011;21106;52.240;20.902;2023-07-31T12:28:50;4.40;;;1.40;;
34892;SDS011;21106;52.240;20.902;2023-07-31T12:33:56;7.80;;;1.20;;
34892;SDS011;21106;52.240;20.902;2023-07-31T12:39:03;5.70;;;1.20;;
34892;SDS011;21106;52.240;20.902;2023-07-31T12:44:10;4.50;;;1.60;;
34892;SDS011;21106;52.240;20.902;2023-07-31T12:49:16;7.20;;;1.40;;
34892;SDS011;21106;52.240;20.902;2023-07-31T12:54:22;5.30;;;1.50;;
34892;SDS011;21106;52.240;20.902;2023-07-31T12:59:28;3.90;;;1.20;;
34892;SDS011;21106;52.240;20.902;2023-07-31T13:04:35;3.70;;;1.20;;
34892;SDS011;21106;52.240;20.902;2023-07-31T13:09:41;5.30;;;1.30;;
34892;SDS011;21106;52.240;20.902;2023-07-31T13:14:47;7.50;;;1.40;;
34892;SDS011;21106;52.240;20.902;2023-07-31T13:19:54;3.60;;;1.30;;
34892;SDS011;21106;52.240;20.902;2023-07-31T13:25:00;7.80;;;1.10;;
34892;SDS011;21106;52.240;20.902;2023-07-31T13:30:06;3.20;;;1.10;;
34892;SDS011;21106;52.240;20.902;2023-07-31T13:35:13;6.60;;;1.50;;
34892;SDS011;21106;52.240;20.902;2023-07-31T13:40:19;5.10;;;1.20;;
34892;SDS011;21106;52.240;20.902;2023-07-31T13:45:25;6.20;;;1.30;;
34892;SDS011;21106;52.240;20.902;2023-07-31T13:50:31;3.90;;;0.90;;
34892;SDS011;21106;52.240;20.902;2023-07-31T13:55:38;4.10;;;1.30;;
34892;SDS011;21106;52.240;20.902;2023-07-31T14:00:44;8.00;;;1.40;;
34892;SDS011;21106;52.240;20.902;2023-07-31T14:05:51;10.10;;;2.30;;
34892;SDS011;21106;52.240;20.902;2023-07-31T14:10:58;15.60;;;2.40;;
34892;SDS011;21106;52.240;20.902;2023-07-31T14:16:04;9.60;;;2.00;;
34892;SDS011;21106;52.240;20.902;2023-07-31T14:21:10;7.90;;;1.80;;
34892;SDS011;21106;52.240;20.902;2023-07-31T14:26:16;6.50;;;1.70;;
34892;SDS011;21106;52.240;20.902;2023-07-31T14:31:23;4.00;;;1.20;;
34892;SDS011;21106;52.240;20.902;2023-07-31T14:36:29;3.40;;;1.20;;
34892;SDS011;21106;52.240;20.902;2023-07-31T14:41:35;8.40;;;1.70;;
34892;SDS011;21106;52.240;20.902;2023-07-31T14:46:41;6.90;;;1.70;;
34892;SDS011;21106;52.240;20.902;2023-07-31T14:51:48;5.60;;;1.40;;
34892;SDS011;21106;52.240;20.902;2023-07-31T14:56:54;2.70;;;1.30;;
34892;SDS011;21106;52.240;20.902;2023-07-31T15:02:00;5.70;;;1.40;;
34892;SDS011;21106;52.240;20.902;2023-07-31T15:07:06;6.80;;;1.50;;
34892;SDS011;21106;52.240;20.902;2023-07-31T15:12:13;4.70;;;1.30;;
34892;SDS011;21106;52.240;20.902;2023-07-31T15:17:19;7.80;;;1.50;;
34892;SDS011;21106;52.240;20.902;2023-07-31T15:22:25;4.10;;;1.50;;
34892;SDS011;21106;52.240;20.902;2023-07-31T15:27:32;8.20;;;1.80;;
34892;SDS011;21106;52.240;20.902;2023-07-31T15:32:38;5.70;;;1.50;;
34892;SDS011;21106;52.240;20.902;2023-07-31T15:37:44;6.30;;;1.50;;
34892;SDS011;21106;52.240;20.902;2023-07-31T15:42:50;4.00;;;1.60;;
34892;SDS011;21106;52.240;20.902;2023-07-31T15:47:57;4.10;;;2.00;;
34892;SDS011;21106;52.240;20.902;2023-07-31T15:53:03;4.20;;;1.40;;
34892;SDS011;21106;52.240;20.902;2023-07-31T15:58:09;8.90;;;1.20;;
34892;SDS011;21106;52.240;20.902;2023-07-31T16:03:15;5.30;;;1.90;;
34892;SDS011;21106;52.240;20.902;2023-07-31T16:08:22;4.20;;;1.20;;
34892;SDS011;21106;52.240;20.902;2023-07-31T16:13:28;8.00;;;1.70;;
34892;SDS011;21106;52.240;20.902;2023-07-31T16:18:34;6.70;;;1.60;;
34892;SDS011;21106;52.240;20.902;2023-07-31T16:23:41;4.30;;;1.30;;
34892;SDS011;21106;52.240;20.902;2023-07-31T16:29:01;8.30;;;1.70;;
34892;SDS011;21106;52.240;20.902;2023-07-31T16:34:25;5.20;;;1.60;;
34892;SDS011;21106;52.240;20.902;2023-07-31T16:39:36;4.70;;;1.70;;
34892;SDS011;21106;52.240;20.902;2023-07-31T16:44:42;6.80;;;2.00;;
34892;SDS011;21106;52.240;20.902;2023-07-31T16:49:49;4.00;;;1.40;;
34892;SDS011;21106;52.240;20.902;2023-07-31T16:54:56;5.50;;;1.40;;
34892;SDS011;21106;52.240;20.902;2023-07-31T17:00:02;5.60;;;2.10;;
34892;SDS011;21106;52.240;20.902;2023-07-31T17:05:08;8.70;;;2.00;;
34892;SDS011;21106;52.240;20.902;2023-07-31T17:10:15;7.50;;;1.90;;
34892;SDS011;21106;52.240;20.902;2023-07-31T17:15:21;8.90;;;2.10;;
34892;SDS011;21106;52.240;20.902;2023-07-31T17:20:30;6.20;;;1.80;;
34892;SDS011;21106;52.240;20.902;2023-07-31T17:25:40;3.50;;;1.50;;
34892;SDS011;21106;52.240;20.902;2023-07-31T17:30:47;8.70;;;1.90;;
34892;SDS011;21106;52.240;20.902;2023-07-31T17:35:53;6.00;;;2.10;;
34892;SDS011;21106;52.240;20.902;2023-07-31T17:41:00;7.20;;;2.20;;
34892;SDS011;21106;52.240;20.902;2023-07-31T17:46:16;9.10;;;2.10;;
34892;SDS011;21106;52.240;20.902;2023-07-31T17:51:36;8.00;;;2.40;;
34892;SDS011;21106;52.240;20.902;2023-07-31T17:56:42;5.90;;;1.90;;
34892;SDS011;21106;52.240;20.902;2023-07-31T18:01:48;9.80;;;2.30;;
34892;SDS011;21106;52.240;20.902;2023-07-31T18:06:54;7.40;;;2.40;;
34892;SDS011;21106;52.240;20.902;2023-07-31T18:12:02;14.10;;;3.20;;
34892;SDS011;21106;52.240;20.902;2023-07-31T18:17:15;5.70;;;1.80;;
34892;SDS011;21106;52.240;20.902;2023-07-31T18:22:35;5.60;;;2.10;;
34892;SDS011;21106;52.240;20.902;2023-07-31T18:27:41;6.90;;;2.40;;
34892;SDS011;21106;52.240;20.902;2023-07-31T18:32:49;8.50;;;2.20;;
34892;SDS011;21106;52.240;20.902;2023-07-31T18:37:55;8.90;;;2.50;;
34892;SDS011;21106;52.240;20.902;2023-07-31T18:43:01;14.20;;;2.90;;
34892;SDS011;21106;52.240;20.902;2023-07-31T18:48:07;6.80;;;2.00;;
34892;SDS011;21106;52.240;20.902;2023-07-31T18:53:14;6.50;;;2.30;;
34892;SDS011;21106;52.240;20.902;2023-07-31T18:58:20;10.20;;;1.80;;
34892;SDS011;21106;52.240;20.902;2023-07-31T19:03:26;7.60;;;1.90;;
34892;SDS011;21106;52.240;20.902;2023-07-31T19:08:33;8.20;;;2.20;;
34892;SDS011;21106;52.240;20.902;2023-07-31T19:13:40;8.20;;;2.00;;
34892;SDS011;21106;52.240;20.902;2023-07-31T19:18:46;6.00;;;1.80;;
34892;SDS011;21106;52.240;20.902;2023-07-31T19:23:55;7.50;;;2.40;;
34892;SDS011;21106;52.240;20.902;2023-07-31T19:29:01;5.30;;;2.30;;
34892;SDS011;21106;52.240;20.902;2023-07-31T19:34:11;10.40;;;2.20;;
34892;SDS011;21106;52.240;20.902;2023-07-31T19:44:25;11.30;;;3.30;;
34892;SDS011;21106;52.240;20.902;2023-07-31T19:49:31;6.60;;;2.40;;
34892;SDS011;21106;52.240;20.902;2023-07-31T19:54:38;4.60;;;2.30;;
34892;SDS011;21106;52.240;20.902;2023-07-31T19:59:44;4.60;;;2.40;;
34892;SDS011;21106;52.240;20.902;2023-07-31T20:04:50;8.90;;;2.30;;
34892;SDS011;21106;52.240;20.902;2023-07-31T20:09:57;12.50;;;3.00;;
34892;SDS011;21106;52.240;20.902;2023-07-31T20:15:04;4.00;;;1.60;;
34892;SDS011;21106;52.240;20.902;2023-07-31T20:20:10;7.90;;;2.20;;
34892;SDS011;21106;52.240;20.902;2023-07-31T20:25:17;9.50;;;2.30;;
34892;SDS011;21106;52.240;20.902;2023-07-31T20:30:24;12.10;;;2.90;;
34892;SDS011;21106;52.240;20.902;2023-07-31T20:35:30;9.80;;;2.80;;
34892;SDS011;21106;52.240;20.902;2023-07-31T20:40:37;17.40;;;2.50;;
34892;SDS011;21106;52.240;20.902;2023-07-31T20:45:43;8.50;;;2.50;;
34892;SDS011;21106;52.240;20.902;2023-07-31T20:50:49;11.60;;;3.00;;
34892;SDS011;21106;52.240;20.902;2023-07-31T20:55:55;6.90;;;2.30;;
34892;SDS011;21106;52.240;20.902;2023-07-31T21:01:02;5.70;;;2.30;;
34892;SDS011;21106;52.240;20.902;2023-07-31T21:06:08;7.90;;;2.10;;
34892;SDS011;21106;52.240;20.902;2023-07-31T21:11:14;11.00;;;2.60;;
34892;SDS011;21106;52.240;20.902;2023-07-31T21:16:20;9.60;;;2.20;;
34892;SDS011;21106;52.240;20.902;2023-07-31T21:21:27;8.90;;;2.30;;
34892;SDS011;21106;52.240;20.902;2023-07-31T21:26:33;3.30;;;1.90;;
34892;SDS011;21106;52.240;20.902;2023-07-31T21:31:39;5.00;;;1.90;;
34892;SDS011;21106;52.240;20.902;2023-07-31T21:36:46;5.30;;;2.00;;
34892;SDS011;21106;52.240;20.902;2023-07-31T21:41:52;12.70;;;2.70;;
34892;SDS011;21106;52.240;20.902;2023-07-31T21:46:58;8.10;;;1.90;;
34892;SDS011;21106;52.240;20.902;2023-07-31T21:52:04;8.50;;;2.60;;
34892;SDS011;21106;52.240;20.902;2023-07-31T21:57:11;6.40;;;2.40;;
34892;SDS011;21106;52.240;20.902;2023-07-31T22:02:17;7.20;;;2.20;;
34892;SDS011;21106;52.240;20.902;2023-07-31T22:07:23;9.40;;;2.70;;
34892;SDS011;21106;52.240;20.902;2023-07-31T22:12:30;6.80;;;2.20;;
34892;SDS011;21106;52.240;20.902;2023-07-31T22:17:36;4.00;;;2.40;;
34892;SDS011;21106;52.240;20.902;2023-07-31T22:22:43;5.90;;;2.40;;
34892;SDS011;21106;52.240;20.902;2023-07-31T22:27:49;6.30;;;2.10;;
34892;SDS011;21106;52.240;20.902;2023-07-31T22:32:56;4.20;;;2.20;;
34892;SDS011;21106;52.240;20.902;2023-07-31T22:38:02;6.70;;;2.60;;
34892;SDS011;21106;52.240;20.902;2023-07-31T22:43:08;4.00;;;2.10;;
34892;SDS011;21106;52.240;20.902;2023-07-31T22:48:15;3.60;;;2.20;;
34892;SDS011;21106;52.240;20.902;2023-07-31T22:53:21;6.40;;;2.30;;
34892;SDS011;21106;52.240;20.902;2023-07-31T22:58:27;6.30;;;2.40;;
34892;SDS011;21106;52.240;20.902;2023-07-31T23:03:38;4.70;;;2.20;;
34892;SDS011;21106;52.240;20.902;2023-07-31T23:08:44;6.60;;;2.90;;
34892;SDS011;21106;52.240;20.902;2023-07-31T23:13:50;5.50;;;2.10;;
34892;SDS011;21106;52.240;20.902;2023-07-31T23:18:57;6.40;;;2.10;;
34892;SDS011;21106;52.240;20.902;2023-07-31T23:24:03;5.70;;;2.20;;
34892;SDS011;21106;52.240;20.902;2023-07-31T23:29:09;3.10;;;2.10;;
34892;SDS011;21106;52.240;20.902;2023-07-31T23:34:15;4.90;;;2.30;;
34892;SDS011;21106;52.240;20.902;2023-07-31T23:39:22;3.80;;;2.10;;
34892;SDS011;21106;52.240;20.902;2023-07-31T23:44:28;5.50;;;2.70;;
34892;SDS011;21106;52.240;20.902;2023-07-31T23:49:34;3.60;;;2.20;;
34892;SDS011;21106;52.240;20.902;2023-07-31T23:54:40;2.90;;;1.80;;
34892;SDS011;21106;52.240;20.902;2023-07-31T23:59:47;10.30;;;2.90;;
